aviador You're here:

MMMZ Decoded Metar

MAZATLAN in MEXICO
Report Time2017-09-25 03:40:00
UTC Time2017-09-25 04:27:02
Flight Rules vfr VFR
Wind100° at 03 kt
W.Decomp.*RWY 08: 2.9 kt HW 0.6 kt RCW
W.Rank100° ranks 26
Current wind is below 100° avg. (5.6)
Visibility9999 m
Phenomena:N/A
Clouds:Broken 090 Hf
Overcast 230 Hf
Expected CloudBase > 400 ft AGL from Temp-Dew spread
Ceiling9,000 ft
Temp27°C (ISA +12)
Dew Point26°C (94% RH)
Heat Index31.2°C
QNH1006 hPa
Density Alt2,100 ft
Elevation33 ft
Report Wrong Elevation
Raw Report
METAR MMMZ 250340Z 10003KT 10SM BKN090 OVC230 27/26 A2972 RMK 8/063
ISOL SC HZY=

Extra information for MMMZ:More info

Metar Taf Metar & Taf Last 4 Metars F.Rules Stats Wind Profile Meteogram Temp Stats Airport Information Weather charts Add Link Nearby VenuesMetar ALERT Operation Metar Decoded Social comments